sensor_id;sensor_type;location;lat;lon;timestamp;P1;durP1;ratioP1;P2;durP2;ratioP2
48647;SDS011;34437;-33.956;151.076;2023-04-25T00:00:16;6.65;;;2.63;;
48647;SDS011;34437;-33.956;151.076;2023-04-25T00:02:39;9.30;;;3.00;;
48647;SDS011;34437;-33.956;151.076;2023-04-25T00:05:02;7.40;;;2.95;;
48647;SDS011;34437;-33.956;151.076;2023-04-25T00:07:25;6.60;;;2.80;;
48647;SDS011;34437;-33.956;151.076;2023-04-25T00:09:48;8.65;;;2.83;;
48647;SDS011;34437;-33.956;151.076;2023-04-25T00:12:11;13.48;;;2.88;;
48647;SDS011;34437;-33.956;151.076;2023-04-25T00:14:34;8.55;;;3.08;;
48647;SDS011;34437;-33.956;151.076;2023-04-25T00:16:56;6.80;;;2.85;;
48647;SDS011;34437;-33.956;151.076;2023-04-25T00:19:19;9.50;;;3.03;;
48647;SDS011;34437;-33.956;151.076;2023-04-25T00:21:42;8.80;;;2.78;;
48647;SDS011;34437;-33.956;151.076;2023-04-25T00:24:07;10.23;;;3.22;;
48647;SDS011;34437;-33.956;151.076;2023-04-25T00:26:29;10.98;;;3.65;;
48647;SDS011;34437;-33.956;151.076;2023-04-25T00:28:51;8.48;;;3.25;;
48647;SDS011;34437;-33.956;151.076;2023-04-25T00:31:14;7.75;;;3.60;;
48647;SDS011;34437;-33.956;151.076;2023-04-25T00:33:36;9.02;;;2.97;;
48647;SDS011;34437;-33.956;151.076;2023-04-25T00:35:59;8.60;;;3.63;;
48647;SDS011;34437;-33.956;151.076;2023-04-25T00:38:21;9.00;;;3.40;;
48647;SDS011;34437;-33.956;151.076;2023-04-25T00:40:43;9.50;;;2.65;;
48647;SDS011;34437;-33.956;151.076;2023-04-25T00:43:06;8.32;;;2.67;;
48647;SDS011;34437;-33.956;151.076;2023-04-25T00:45:28;6.82;;;2.90;;
48647;SDS011;34437;-33.956;151.076;2023-04-25T00:47:51;7.90;;;3.38;;
48647;SDS011;34437;-33.956;151.076;2023-04-25T00:50:13;6.47;;;3.08;;
48647;SDS011;34437;-33.956;151.076;2023-04-25T00:52:38;7.45;;;2.97;;
48647;SDS011;34437;-33.956;151.076;2023-04-25T00:55:02;6.97;;;2.80;;
48647;SDS011;34437;-33.956;151.076;2023-04-25T00:57:25;5.97;;;3.05;;
48647;SDS011;34437;-33.956;151.076;2023-04-25T00:59:47;6.50;;;2.72;;
48647;SDS011;34437;-33.956;151.076;2023-04-25T01:02:12;6.55;;;2.67;;
48647;SDS011;34437;-33.956;151.076;2023-04-25T01:04:34;4.90;;;2.67;;
48647;SDS011;34437;-33.956;151.076;2023-04-25T01:06:57;6.18;;;3.00;;
48647;SDS011;34437;-33.956;151.076;2023-04-25T01:09:20;5.10;;;2.65;;
48647;SDS011;34437;-33.956;151.076;2023-04-25T01:11:44;6.28;;;3.08;;
48647;SDS011;34437;-33.956;151.076;2023-04-25T01:14:07;5.97;;;3.05;;
48647;SDS011;34437;-33.956;151.076;2023-04-25T01:16:29;6.20;;;2.92;;
48647;SDS011;34437;-33.956;151.076;2023-04-25T01:18:52;5.30;;;2.37;;
48647;SDS011;34437;-33.956;151.076;2023-04-25T01:21:15;5.10;;;2.67;;
48647;SDS011;34437;-33.956;151.076;2023-04-25T01:23:39;4.72;;;2.75;;
48647;SDS011;34437;-33.956;151.076;2023-04-25T01:26:02;7.60;;;2.90;;
48647;SDS011;34437;-33.956;151.076;2023-04-25T01:28:25;5.77;;;2.53;;
48647;SDS011;34437;-33.956;151.076;2023-04-25T01:30:48;4.95;;;2.40;;
48647;SDS011;34437;-33.956;151.076;2023-04-25T01:33:11;5.10;;;2.67;;
48647;SDS011;34437;-33.956;151.076;2023-04-25T01:35:35;5.72;;;2.53;;
48647;SDS011;34437;-33.956;151.076;2023-04-25T01:37:57;5.05;;;2.70;;
48647;SDS011;34437;-33.956;151.076;2023-04-25T01:40:20;5.13;;;2.53;;
48647;SDS011;34437;-33.956;151.076;2023-04-25T01:42:44;5.85;;;2.72;;
48647;SDS011;34437;-33.956;151.076;2023-04-25T01:45:07;7.20;;;2.85;;
48647;SDS011;34437;-33.956;151.076;2023-04-25T01:47:30;4.45;;;3.17;;
48647;SDS011;34437;-33.956;151.076;2023-04-25T01:49:52;5.65;;;2.80;;
48647;SDS011;34437;-33.956;151.076;2023-04-25T01:52:15;7.63;;;2.80;;
48647;SDS011;34437;-33.956;151.076;2023-04-25T01:54:37;6.75;;;3.22;;
48647;SDS011;34437;-33.956;151.076;2023-04-25T01:57:04;6.88;;;3.28;;
48647;SDS011;34437;-33.956;151.076;2023-04-25T01:59:27;5.65;;;2.90;;
48647;SDS011;34437;-33.956;151.076;2023-04-25T02:01:49;5.63;;;2.72;;
48647;SDS011;34437;-33.956;151.076;2023-04-25T02:04:11;6.25;;;2.85;;
48647;SDS011;34437;-33.956;151.076;2023-04-25T02:06:34;5.00;;;2.65;;
48647;SDS011;34437;-33.956;151.076;2023-04-25T02:08:56;6.20;;;3.28;;
48647;SDS011;34437;-33.956;151.076;2023-04-25T02:11:18;6.38;;;3.10;;
48647;SDS011;34437;-33.956;151.076;2023-04-25T02:13:41;6.45;;;2.80;;
48647;SDS011;34437;-33.956;151.076;2023-04-25T02:16:03;5.65;;;3.30;;
48647;SDS011;34437;-33.956;151.076;2023-04-25T02:18:26;6.38;;;3.10;;
48647;SDS011;34437;-33.956;151.076;2023-04-25T02:20:49;5.80;;;3.00;;
48647;SDS011;34437;-33.956;151.076;2023-04-25T02:23:11;5.15;;;2.80;;
48647;SDS011;34437;-33.956;151.076;2023-04-25T02:25:36;4.88;;;2.83;;
48647;SDS011;34437;-33.956;151.076;2023-04-25T02:27:58;7.10;;;2.95;;
48647;SDS011;34437;-33.956;151.076;2023-04-25T02:30:21;5.03;;;3.22;;
48647;SDS011;34437;-33.956;151.076;2023-04-25T02:32:43;6.63;;;3.00;;
48647;SDS011;34437;-33.956;151.076;2023-04-25T02:35:05;4.05;;;2.53;;
48647;SDS011;34437;-33.956;151.076;2023-04-25T02:37:29;4.53;;;2.83;;
48647;SDS011;34437;-33.956;151.076;2023-04-25T02:39:55;5.00;;;2.63;;
48647;SDS011;34437;-33.956;151.076;2023-04-25T02:42:18;5.72;;;3.03;;
48647;SDS011;34437;-33.956;151.076;2023-04-25T02:44:40;6.28;;;2.67;;
48647;SDS011;34437;-33.956;151.076;2023-04-25T02:47:03;5.38;;;3.10;;
48647;SDS011;34437;-33.956;151.076;2023-04-25T02:49:25;5.35;;;3.05;;
48647;SDS011;34437;-33.956;151.076;2023-04-25T02:51:47;5.18;;;2.90;;
48647;SDS011;34437;-33.956;151.076;2023-04-25T02:54:10;6.20;;;3.03;;
48647;SDS011;34437;-33.956;151.076;2023-04-25T02:56:32;6.00;;;2.83;;
48647;SDS011;34437;-33.956;151.076;2023-04-25T02:58:55;6.38;;;3.10;;
48647;SDS011;34437;-33.956;151.076;2023-04-25T03:01:17;5.90;;;2.85;;
48647;SDS011;34437;-33.956;151.076;2023-04-25T03:03:39;5.03;;;2.95;;
48647;SDS011;34437;-33.956;151.076;2023-04-25T03:06:02;5.47;;;2.80;;
48647;SDS011;34437;-33.956;151.076;2023-04-25T03:08:24;5.15;;;3.17;;
48647;SDS011;34437;-33.956;151.076;2023-04-25T03:10:50;5.90;;;2.90;;
48647;SDS011;34437;-33.956;151.076;2023-04-25T03:13:16;5.80;;;3.10;;
48647;SDS011;34437;-33.956;151.076;2023-04-25T03:15:38;4.03;;;2.42;;
48647;SDS011;34437;-33.956;151.076;2023-04-25T03:18:01;6.22;;;3.28;;
48647;SDS011;34437;-33.956;151.076;2023-04-25T03:20:23;5.88;;;2.85;;
48647;SDS011;34437;-33.956;151.076;2023-04-25T03:22:46;5.57;;;2.67;;
48647;SDS011;34437;-33.956;151.076;2023-04-25T03:25:08;4.82;;;2.80;;
48647;SDS011;34437;-33.956;151.076;2023-04-25T03:27:31;4.93;;;2.47;;
48647;SDS011;34437;-33.956;151.076;2023-04-25T03:29:53;5.60;;;2.55;;
48647;SDS011;34437;-33.956;151.076;2023-04-25T03:32:16;5.22;;;3.08;;
48647;SDS011;34437;-33.956;151.076;2023-04-25T03:34:38;5.07;;;2.65;;
48647;SDS011;34437;-33.956;151.076;2023-04-25T03:37:01;5.70;;;2.80;;
48647;SDS011;34437;-33.956;151.076;2023-04-25T03:39:24;5.35;;;3.00;;
48647;SDS011;34437;-33.956;151.076;2023-04-25T03:41:46;5.88;;;2.97;;
48647;SDS011;34437;-33.956;151.076;2023-04-25T03:44:08;5.22;;;2.88;;
48647;SDS011;34437;-33.956;151.076;2023-04-25T03:46:31;4.88;;;2.60;;
48647;SDS011;34437;-33.956;151.076;2023-04-25T03:48:53;6.35;;;2.92;;
48647;SDS011;34437;-33.956;151.076;2023-04-25T03:51:16;4.68;;;2.35;;
48647;SDS011;34437;-33.956;151.076;2023-04-25T03:53:38;5.10;;;2.90;;
48647;SDS011;34437;-33.956;151.076;2023-04-25T03:56:01;6.05;;;3.00;;
48647;SDS011;34437;-33.956;151.076;2023-04-25T03:58:23;5.18;;;2.70;;
48647;SDS011;34437;-33.956;151.076;2023-04-25T04:00:46;4.78;;;2.50;;
48647;SDS011;34437;-33.956;151.076;2023-04-25T04:03:08;5.00;;;2.55;;
48647;SDS011;34437;-33.956;151.076;2023-04-25T04:05:31;6.75;;;2.80;;
48647;SDS011;34437;-33.956;151.076;2023-04-25T04:07:54;5.53;;;2.70;;
48647;SDS011;34437;-33.956;151.076;2023-04-25T04:10:16;5.10;;;2.92;;
48647;SDS011;34437;-33.956;151.076;2023-04-25T04:12:39;5.22;;;2.60;;
48647;SDS011;34437;-33.956;151.076;2023-04-25T04:15:02;4.80;;;2.60;;
48647;SDS011;34437;-33.956;151.076;2023-04-25T04:17:25;4.45;;;2.63;;
48647;SDS011;34437;-33.956;151.076;2023-04-25T04:19:48;3.70;;;2.40;;
48647;SDS011;34437;-33.956;151.076;2023-04-25T04:22:10;7.43;;;2.67;;
48647;SDS011;34437;-33.956;151.076;2023-04-25T04:24:33;4.82;;;2.30;;
48647;SDS011;34437;-33.956;151.076;2023-04-25T04:26:55;5.65;;;3.05;;
48647;SDS011;34437;-33.956;151.076;2023-04-25T04:29:18;4.82;;;2.55;;
48647;SDS011;34437;-33.956;151.076;2023-04-25T04:31:43;4.07;;;2.42;;
48647;SDS011;34437;-33.956;151.076;2023-04-25T04:34:06;4.38;;;2.47;;
48647;SDS011;34437;-33.956;151.076;2023-04-25T04:36:28;5.20;;;3.05;;
48647;SDS011;34437;-33.956;151.076;2023-04-25T04:38:51;5.38;;;2.90;;
48647;SDS011;34437;-33.956;151.076;2023-04-25T04:41:14;4.73;;;2.70;;
48647;SDS011;34437;-33.956;151.076;2023-04-25T04:43:37;3.80;;;2.47;;
48647;SDS011;34437;-33.956;151.076;2023-04-25T04:46:00;4.00;;;2.63;;
48647;SDS011;34437;-33.956;151.076;2023-04-25T04:50:46;6.07;;;2.58;;
48647;SDS011;34437;-33.956;151.076;2023-04-25T04:53:08;4.85;;;2.42;;
48647;SDS011;34437;-33.956;151.076;2023-04-25T04:55:31;6.18;;;2.40;;
48647;SDS011;34437;-33.956;151.076;2023-04-25T04:57:53;5.68;;;2.67;;
48647;SDS011;34437;-33.956;151.076;2023-04-25T05:00:16;5.00;;;2.42;;
48647;SDS011;34437;-33.956;151.076;2023-04-25T05:02:38;4.30;;;2.42;;
48647;SDS011;34437;-33.956;151.076;2023-04-25T05:05:01;4.72;;;2.55;;
48647;SDS011;34437;-33.956;151.076;2023-04-25T05:07:23;5.00;;;2.63;;
48647;SDS011;34437;-33.956;151.076;2023-04-25T05:09:46;4.13;;;2.60;;
48647;SDS011;34437;-33.956;151.076;2023-04-25T05:12:08;3.65;;;2.03;;
48647;SDS011;34437;-33.956;151.076;2023-04-25T05:14:31;4.18;;;2.45;;
48647;SDS011;34437;-33.956;151.076;2023-04-25T05:16:53;4.78;;;2.50;;
48647;SDS011;34437;-33.956;151.076;2023-04-25T05:19:15;4.78;;;2.70;;
48647;SDS011;34437;-33.956;151.076;2023-04-25T05:21:38;3.88;;;2.72;;
48647;SDS011;34437;-33.956;151.076;2023-04-25T05:24:01;4.30;;;2.65;;
48647;SDS011;34437;-33.956;151.076;2023-04-25T05:26:23;4.57;;;2.30;;
48647;SDS011;34437;-33.956;151.076;2023-04-25T05:28:46;3.60;;;2.38;;
48647;SDS011;34437;-33.956;151.076;2023-04-25T05:31:11;4.10;;;2.30;;
48647;SDS011;34437;-33.956;151.076;2023-04-25T05:33:34;4.18;;;2.60;;
48647;SDS011;34437;-33.956;151.076;2023-04-25T05:35:56;4.03;;;2.47;;
48647;SDS011;34437;-33.956;151.076;2023-04-25T05:38:19;4.85;;;2.40;;
48647;SDS011;34437;-33.956;151.076;2023-04-25T05:40:41;5.03;;;2.60;;
48647;SDS011;34437;-33.956;151.076;2023-04-25T05:43:03;5.75;;;2.20;;
48647;SDS011;34437;-33.956;151.076;2023-04-25T05:45:26;4.72;;;2.10;;
48647;SDS011;34437;-33.956;151.076;2023-04-25T05:47:48;3.85;;;2.35;;
48647;SDS011;34437;-33.956;151.076;2023-04-25T05:50:11;4.57;;;2.33;;
48647;SDS011;34437;-33.956;151.076;2023-04-25T05:52:33;4.50;;;2.00;;
48647;SDS011;34437;-33.956;151.076;2023-04-25T05:54:55;3.63;;;2.30;;
48647;SDS011;34437;-33.956;151.076;2023-04-25T05:57:22;4.55;;;2.22;;
48647;SDS011;34437;-33.956;151.076;2023-04-25T05:59:45;3.88;;;2.10;;
48647;SDS011;34437;-33.956;151.076;2023-04-25T06:02:07;3.65;;;2.40;;
48647;SDS011;34437;-33.956;151.076;2023-04-25T06:04:30;3.58;;;2.45;;
48647;SDS011;34437;-33.956;151.076;2023-04-25T06:06:52;4.78;;;2.20;;
48647;SDS011;34437;-33.956;151.076;2023-04-25T06:09:15;4.55;;;2.40;;
48647;SDS011;34437;-33.956;151.076;2023-04-25T06:11:38;4.43;;;2.45;;
48647;SDS011;34437;-33.956;151.076;2023-04-25T06:14:00;4.60;;;1.80;;
48647;SDS011;34437;-33.956;151.076;2023-04-25T06:16:23;4.65;;;2.28;;
48647;SDS011;34437;-33.956;151.076;2023-04-25T06:18:46;4.13;;;2.15;;
48647;SDS011;34437;-33.956;151.076;2023-04-25T06:21:09;3.45;;;1.92;;
48647;SDS011;34437;-33.956;151.076;2023-04-25T06:23:31;5.72;;;2.03;;
48647;SDS011;34437;-33.956;151.076;2023-04-25T06:25:54;4.38;;;2.13;;
48647;SDS011;34437;-33.956;151.076;2023-04-25T06:28:17;3.22;;;1.83;;
48647;SDS011;34437;-33.956;151.076;2023-04-25T06:30:40;4.53;;;2.50;;
48647;SDS011;34437;-33.956;151.076;2023-04-25T06:33:02;4.45;;;2.20;;
48647;SDS011;34437;-33.956;151.076;2023-04-25T06:35:25;4.10;;;2.10;;
48647;SDS011;34437;-33.956;151.076;2023-04-25T06:37:47;4.97;;;2.00;;
48647;SDS011;34437;-33.956;151.076;2023-04-25T06:40:10;3.72;;;2.17;;
48647;SDS011;34437;-33.956;151.076;2023-04-25T06:42:33;4.10;;;2.00;;
48647;SDS011;34437;-33.956;151.076;2023-04-25T06:44:55;3.10;;;2.13;;
48647;SDS011;34437;-33.956;151.076;2023-04-25T06:47:18;4.40;;;2.22;;
48647;SDS011;34437;-33.956;151.076;2023-04-25T06:49:40;3.50;;;1.80;;
48647;SDS011;34437;-33.956;151.076;2023-04-25T06:52:03;4.35;;;2.45;;
48647;SDS011;34437;-33.956;151.076;2023-04-25T06:54:25;4.95;;;2.47;;
48647;SDS011;34437;-33.956;151.076;2023-04-25T06:56:50;3.88;;;1.92;;
48647;SDS011;34437;-33.956;151.076;2023-04-25T06:59:13;4.07;;;2.00;;
48647;SDS011;34437;-33.956;151.076;2023-04-25T07:01:35;4.25;;;2.65;;
48647;SDS011;34437;-33.956;151.076;2023-04-25T07:03:58;5.07;;;2.00;;
48647;SDS011;34437;-33.956;151.076;2023-04-25T07:06:21;2.95;;;1.92;;
48647;SDS011;34437;-33.956;151.076;2023-04-25T07:08:43;4.80;;;2.40;;
48647;SDS011;34437;-33.956;151.076;2023-04-25T07:11:05;4.85;;;2.30;;
48647;SDS011;34437;-33.956;151.076;2023-04-25T07:13:28;3.78;;;2.00;;
48647;SDS011;34437;-33.956;151.076;2023-04-25T07:15:50;5.68;;;2.13;;
48647;SDS011;34437;-33.956;151.076;2023-04-25T07:18:13;3.72;;;1.88;;
48647;SDS011;34437;-33.956;151.076;2023-04-25T07:20:36;5.00;;;2.50;;
48647;SDS011;34437;-33.956;151.076;2023-04-25T07:22:58;3.38;;;2.20;;
48647;SDS011;34437;-33.956;151.076;2023-04-25T07:25:21;3.63;;;2.05;;
48647;SDS011;34437;-33.956;151.076;2023-04-25T07:27:43;3.90;;;2.05;;
48647;SDS011;34437;-33.956;151.076;2023-04-25T07:30:06;4.53;;;2.10;;
48647;SDS011;34437;-33.956;151.076;2023-04-25T07:32:29;4.22;;;2.17;;
48647;SDS011;34437;-33.956;151.076;2023-04-25T07:34:51;3.50;;;1.98;;
48647;SDS011;34437;-33.956;151.076;2023-04-25T07:37:14;3.63;;;1.90;;
48647;SDS011;34437;-33.956;151.076;2023-04-25T07:39:36;4.35;;;2.03;;
48647;SDS011;34437;-33.956;151.076;2023-04-25T07:41:59;3.90;;;1.95;;
48647;SDS011;34437;-33.956;151.076;2023-04-25T07:44:22;3.78;;;2.15;;
48647;SDS011;34437;-33.956;151.076;2023-04-25T07:46:46;5.00;;;2.30;;
48647;SDS011;34437;-33.956;151.076;2023-04-25T07:49:09;5.07;;;2.50;;
48647;SDS011;34437;-33.956;151.076;2023-04-25T07:51:31;4.88;;;2.15;;
48647;SDS011;34437;-33.956;151.076;2023-04-25T07:53:56;3.38;;;2.10;;
48647;SDS011;34437;-33.956;151.076;2023-04-25T07:58:42;3.25;;;1.88;;
48647;SDS011;34437;-33.956;151.076;2023-04-25T08:01:05;5.43;;;2.47;;
48647;SDS011;34437;-33.956;151.076;2023-04-25T08:03:27;5.72;;;3.15;;
48647;SDS011;34437;-33.956;151.076;2023-04-25T08:05:50;5.45;;;2.20;;
48647;SDS011;34437;-33.956;151.076;2023-04-25T08:08:12;4.05;;;2.25;;
48647;SDS011;34437;-33.956;151.076;2023-04-25T08:10:35;6.13;;;2.90;;
48647;SDS011;34437;-33.956;151.076;2023-04-25T08:12:57;4.93;;;2.33;;
48647;SDS011;34437;-33.956;151.076;2023-04-25T08:15:20;5.23;;;2.60;;
48647;SDS011;34437;-33.956;151.076;2023-04-25T08:17:43;4.03;;;2.08;;
48647;SDS011;34437;-33.956;151.076;2023-04-25T08:20:06;4.65;;;2.40;;
48647;SDS011;34437;-33.956;151.076;2023-04-25T08:22:29;4.10;;;2.45;;
48647;SDS011;34437;-33.956;151.076;2023-04-25T08:24:52;3.97;;;2.50;;
48647;SDS011;34437;-33.956;151.076;2023-04-25T08:27:15;4.80;;;2.42;;
48647;SDS011;34437;-33.956;151.076;2023-04-25T08:29:37;4.97;;;2.58;;
48647;SDS011;34437;-33.956;151.076;2023-04-25T08:31:59;6.10;;;2.80;;
48647;SDS011;34437;-33.956;151.076;2023-04-25T08:34:22;6.60;;;2.83;;
48647;SDS011;34437;-33.956;151.076;2023-04-25T08:36:44;5.97;;;2.88;;
48647;SDS011;34437;-33.956;151.076;2023-04-25T08:39:07;7.10;;;2.75;;
48647;SDS011;34437;-33.956;151.076;2023-04-25T08:41:29;5.53;;;2.70;;
48647;SDS011;34437;-33.956;151.076;2023-04-25T08:43:52;4.68;;;2.35;;
48647;SDS011;34437;-33.956;151.076;2023-04-25T08:46:17;5.55;;;2.70;;
48647;SDS011;34437;-33.956;151.076;2023-04-25T08:48:40;5.88;;;2.75;;
48647;SDS011;34437;-33.956;151.076;2023-04-25T08:51:06;4.90;;;2.42;;
48647;SDS011;34437;-33.956;151.076;2023-04-25T08:53:30;4.93;;;2.40;;
48647;SDS011;34437;-33.956;151.076;2023-04-25T08:55:55;5.85;;;2.80;;
48647;SDS011;34437;-33.956;151.076;2023-04-25T08:58:19;5.82;;;2.53;;
48647;SDS011;34437;-33.956;151.076;2023-04-25T09:00:42;6.03;;;2.87;;
48647;SDS011;34437;-33.956;151.076;2023-04-25T09:03:04;5.60;;;2.50;;
48647;SDS011;34437;-33.956;151.076;2023-04-25T09:05:28;6.10;;;2.88;;
48647;SDS011;34437;-33.956;151.076;2023-04-25T09:07:50;6.05;;;2.65;;
48647;SDS011;34437;-33.956;151.076;2023-04-25T09:10:12;5.60;;;3.03;;
48647;SDS011;34437;-33.956;151.076;2023-04-25T09:12:35;5.57;;;2.60;;
48647;SDS011;34437;-33.956;151.076;2023-04-25T09:15:16;5.17;;;2.70;;
48647;SDS011;34437;-33.956;151.076;2023-04-25T09:17:41;5.38;;;2.50;;
48647;SDS011;34437;-33.956;151.076;2023-04-25T09:20:05;5.32;;;2.53;;
48647;SDS011;34437;-33.956;151.076;2023-04-25T09:22:32;5.05;;;2.60;;
48647;SDS011;34437;-33.956;151.076;2023-04-25T09:24:54;6.03;;;2.42;;
48647;SDS011;34437;-33.956;151.076;2023-04-25T09:27:20;6.35;;;2.97;;
48647;SDS011;34437;-33.956;151.076;2023-04-25T09:29:47;4.38;;;2.35;;
48647;SDS011;34437;-33.956;151.076;2023-04-25T09:32:20;5.55;;;2.58;;
48647;SDS011;34437;-33.956;151.076;2023-04-25T09:34:51;7.13;;;3.10;;
48647;SDS011;34437;-33.956;151.076;2023-04-25T09:37:16;6.60;;;3.03;;
48647;SDS011;34437;-33.956;151.076;2023-04-25T09:39:50;6.63;;;2.72;;
48647;SDS011;34437;-33.956;151.076;2023-04-25T09:42:17;5.15;;;2.90;;
48647;SDS011;34437;-33.956;151.076;2023-04-25T09:44:43;7.53;;;2.70;;
48647;SDS011;34437;-33.956;151.076;2023-04-25T09:47:09;5.13;;;2.80;;
48647;SDS011;34437;-33.956;151.076;2023-04-25T09:49:33;5.53;;;2.80;;
48647;SDS011;34437;-33.956;151.076;2023-04-25T09:51:56;6.07;;;3.03;;
48647;SDS011;34437;-33.956;151.076;2023-04-25T09:54:19;6.93;;;3.35;;
48647;SDS011;34437;-33.956;151.076;2023-04-25T09:56:41;6.15;;;3.15;;
48647;SDS011;34437;-33.956;151.076;2023-04-25T09:59:05;6.15;;;2.83;;
48647;SDS011;34437;-33.956;151.076;2023-04-25T10:01:28;7.30;;;3.42;;
48647;SDS011;34437;-33.956;151.076;2023-04-25T10:03:51;6.33;;;3.67;;
48647;SDS011;34437;-33.956;151.076;2023-04-25T10:06:19;6.50;;;2.95;;
48647;SDS011;34437;-33.956;151.076;2023-04-25T10:08:43;5.60;;;3.13;;
48647;SDS011;34437;-33.956;151.076;2023-04-25T10:13:30;7.65;;;3.15;;
48647;SDS011;34437;-33.956;151.076;2023-04-25T10:15:53;6.27;;;3.37;;
48647;SDS011;34437;-33.956;151.076;2023-04-25T10:18:17;6.53;;;3.58;;
48647;SDS011;34437;-33.956;151.076;2023-04-25T10:20:40;7.07;;;3.47;;
48647;SDS011;34437;-33.956;151.076;2023-04-25T10:23:05;5.57;;;3.33;;
48647;SDS011;34437;-33.956;151.076;2023-04-25T10:25:32;6.72;;;3.38;;
48647;SDS011;34437;-33.956;151.076;2023-04-25T10:27:55;6.43;;;3.23;;
48647;SDS011;34437;-33.956;151.076;2023-04-25T10:30:20;6.65;;;3.65;;
48647;SDS011;34437;-33.956;151.076;2023-04-25T10:32:43;6.70;;;3.55;;
48647;SDS011;34437;-33.956;151.076;2023-04-25T10:35:13;7.13;;;3.58;;
48647;SDS011;34437;-33.956;151.076;2023-04-25T10:37:36;6.45;;;3.40;;
48647;SDS011;34437;-33.956;151.076;2023-04-25T10:39:59;6.38;;;3.10;;
48647;SDS011;34437;-33.956;151.076;2023-04-25T10:42:30;7.35;;;4.22;;
48647;SDS011;34437;-33.956;151.076;2023-04-25T10:45:04;7.50;;;3.45;;
48647;SDS011;34437;-33.956;151.076;2023-04-25T10:50:08;6.25;;;3.28;;
48647;SDS011;34437;-33.956;151.076;2023-04-25T10:52:32;7.25;;;3.60;;
48647;SDS011;34437;-33.956;151.076;2023-04-25T10:54:56;6.45;;;3.67;;
48647;SDS011;34437;-33.956;151.076;2023-04-25T11:00:06;5.90;;;3.35;;
48647;SDS011;34437;-33.956;151.076;2023-04-25T11:02:36;6.60;;;3.58;;
48647;SDS011;34437;-33.956;151.076;2023-04-25T11:05:02;8.13;;;3.60;;
48647;SDS011;34437;-33.956;151.076;2023-04-25T11:07:37;6.63;;;3.47;;
48647;SDS011;34437;-33.956;151.076;2023-04-25T11:10:06;13.25;;;4.10;;
48647;SDS011;34437;-33.956;151.076;2023-04-25T11:12:29;11.68;;;4.60;;
48647;SDS011;34437;-33.956;151.076;2023-04-25T11:14:58;10.93;;;4.35;;
48647;SDS011;34437;-33.956;151.076;2023-04-25T11:17:29;16.08;;;4.65;;
48647;SDS011;34437;-33.956;151.076;2023-04-25T11:19:52;14.57;;;4.47;;
48647;SDS011;34437;-33.956;151.076;2023-04-25T11:22:17;10.25;;;4.57;;
48647;SDS011;34437;-33.956;151.076;2023-04-25T11:24:42;10.07;;;4.32;;
48647;SDS011;34437;-33.956;151.076;2023-04-25T11:27:05;10.30;;;4.18;;
48647;SDS011;34437;-33.956;151.076;2023-04-25T11:29:28;10.85;;;4.20;;
48647;SDS011;34437;-33.956;151.076;2023-04-25T11:34:20;8.73;;;3.75;;
48647;SDS011;34437;-33.956;151.076;2023-04-25T11:36:43;8.40;;;3.88;;
48647;SDS011;34437;-33.956;151.076;2023-04-25T11:39:07;8.75;;;4.05;;
48647;SDS011;34437;-33.956;151.076;2023-04-25T11:41:29;9.50;;;4.43;;
48647;SDS011;34437;-33.956;151.076;2023-04-25T11:43:52;7.50;;;3.95;;
48647;SDS011;34437;-33.956;151.076;2023-04-25T11:46:15;8.30;;;4.18;;
48647;SDS011;34437;-33.956;151.076;2023-04-25T11:48:40;9.40;;;3.97;;
48647;SDS011;34437;-33.956;151.076;2023-04-25T11:51:04;7.75;;;3.78;;
48647;SDS011;34437;-33.956;151.076;2023-04-25T11:53:27;7.88;;;3.83;;
48647;SDS011;34437;-33.956;151.076;2023-04-25T11:55:49;9.98;;;3.90;;
48647;SDS011;34437;-33.956;151.076;2023-04-25T11:58:12;7.10;;;3.60;;
48647;SDS011;34437;-33.956;151.076;2023-04-25T12:02:58;7.90;;;3.60;;
48647;SDS011;34437;-33.956;151.076;2023-04-25T12:05:27;8.27;;;4.28;;
48647;SDS011;34437;-33.956;151.076;2023-04-25T12:07:54;8.05;;;3.67;;
48647;SDS011;34437;-33.956;151.076;2023-04-25T12:10:17;7.00;;;3.75;;
48647;SDS011;34437;-33.956;151.076;2023-04-25T12:12:42;8.20;;;3.70;;
48647;SDS011;34437;-33.956;151.076;2023-04-25T12:15:12;7.20;;;3.83;;
48647;SDS011;34437;-33.956;151.076;2023-04-25T12:17:37;6.97;;;3.13;;
48647;SDS011;34437;-33.956;151.076;2023-04-25T12:20:10;7.38;;;3.67;;
48647;SDS011;34437;-33.956;151.076;2023-04-25T12:22:37;6.70;;;3.40;;
48647;SDS011;34437;-33.956;151.076;2023-04-25T12:25:02;7.65;;;3.33;;
48647;SDS011;34437;-33.956;151.076;2023-04-25T12:29:52;6.40;;;3.40;;
48647;SDS011;34437;-33.956;151.076;2023-04-25T12:32:16;6.53;;;3.33;;
48647;SDS011;34437;-33.956;151.076;2023-04-25T12:34:39;7.20;;;3.58;;
48647;SDS011;34437;-33.956;151.076;2023-04-25T12:37:02;8.13;;;3.27;;
48647;SDS011;34437;-33.956;151.076;2023-04-25T12:39:25;6.28;;;3.25;;
48647;SDS011;34437;-33.956;151.076;2023-04-25T12:41:49;7.55;;;3.70;;
48647;SDS011;34437;-33.956;151.076;2023-04-25T12:44:16;7.53;;;3.58;;
48647;SDS011;34437;-33.956;151.076;2023-04-25T12:46:41;6.47;;;3.40;;
48647;SDS011;34437;-33.956;151.076;2023-04-25T12:49:04;5.78;;;3.40;;
48647;SDS011;34437;-33.956;151.076;2023-04-25T12:51:28;6.50;;;3.40;;
48647;SDS011;34437;-33.956;151.076;2023-04-25T12:53:51;6.00;;;3.03;;
48647;SDS011;34437;-33.956;151.076;2023-04-25T12:56:13;17.27;;;3.50;;
48647;SDS011;34437;-33.956;151.076;2023-04-25T12:58:36;20.77;;;4.43;;
48647;SDS011;34437;-33.956;151.076;2023-04-25T13:00:59;15.25;;;3.45;;
48647;SDS011;34437;-33.956;151.076;2023-04-25T13:03:21;14.77;;;4.20;;
48647;SDS011;34437;-33.956;151.076;2023-04-25T13:05:44;12.02;;;3.88;;
48647;SDS011;34437;-33.956;151.076;2023-04-25T13:08:07;18.95;;;5.65;;
48647;SDS011;34437;-33.956;151.076;2023-04-25T13:10:31;11.77;;;3.85;;
48647;SDS011;34437;-33.956;151.076;2023-04-25T13:12:54;10.40;;;3.50;;
48647;SDS011;34437;-33.956;151.076;2023-04-25T13:15:17;12.02;;;3.67;;
48647;SDS011;34437;-33.956;151.076;2023-04-25T13:17:40;7.60;;;2.95;;
48647;SDS011;34437;-33.956;151.076;2023-04-25T13:20:03;7.47;;;2.95;;
48647;SDS011;34437;-33.956;151.076;2023-04-25T13:22:31;9.75;;;3.20;;
48647;SDS011;34437;-33.956;151.076;2023-04-25T13:24:55;17.08;;;3.85;;
48647;SDS011;34437;-33.956;151.076;2023-04-25T13:27:17;13.23;;;3.50;;
48647;SDS011;34437;-33.956;151.076;2023-04-25T13:29:40;8.82;;;3.40;;
48647;SDS011;34437;-33.956;151.076;2023-04-25T13:32:02;7.65;;;3.65;;
48647;SDS011;34437;-33.956;151.076;2023-04-25T13:34:25;11.18;;;3.40;;
48647;SDS011;34437;-33.956;151.076;2023-04-25T13:36:48;13.85;;;3.55;;
48647;SDS011;34437;-33.956;151.076;2023-04-25T13:39:10;10.90;;;3.10;;
48647;SDS011;34437;-33.956;151.076;2023-04-25T13:41:33;9.90;;;3.55;;
48647;SDS011;34437;-33.956;151.076;2023-04-25T13:43:55;9.40;;;2.95;;
48647;SDS011;34437;-33.956;151.076;2023-04-25T13:46:18;10.43;;;3.30;;
48647;SDS011;34437;-33.956;151.076;2023-04-25T13:48:40;9.85;;;2.80;;
48647;SDS011;34437;-33.956;151.076;2023-04-25T13:51:07;8.73;;;3.65;;
48647;SDS011;34437;-33.956;151.076;2023-04-25T13:53:29;7.03;;;3.08;;
48647;SDS011;34437;-33.956;151.076;2023-04-25T13:55:52;7.63;;;2.95;;
48647;SDS011;34437;-33.956;151.076;2023-04-25T13:58:14;8.70;;;3.13;;
48647;SDS011;34437;-33.956;151.076;2023-04-25T14:00:37;9.65;;;3.33;;
48647;SDS011;34437;-33.956;151.076;2023-04-25T14:03:01;5.88;;;3.08;;
48647;SDS011;34437;-33.956;151.076;2023-04-25T14:05:25;7.68;;;2.90;;